sensor_id;sensor_type;location;lat;lon;timestamp;temperature;humidity
75466;HTU21D;64049;46.290;44.240;2023-04-06T00:01:46;6.24;54.31
75466;HTU21D;64049;46.290;44.240;2023-04-06T00:04:12;6.06;54.03
75466;HTU21D;64049;46.290;44.240;2023-04-06T00:06:38;5.95;54.26
75466;HTU21D;64049;46.290;44.240;2023-04-06T00:09:04;5.94;54.26
75466;HTU21D;64049;46.290;44.240;2023-04-06T00:14:40;6.10;54.31
75466;HTU21D;64049;46.290;44.240;2023-04-06T00:17:06;6.16;54.20
75466;HTU21D;64049;46.290;44.240;2023-04-06T00:19:31;6.23;54.04
75466;HTU21D;64049;46.290;44.240;2023-04-06T00:22:05;6.21;53.95
75466;HTU21D;64049;46.290;44.240;2023-04-06T00:24:31;6.23;53.70
75466;HTU21D;64049;46.290;44.240;2023-04-06T00:26:57;6.23;53.65
75466;HTU21D;64049;46.290;44.240;2023-04-06T00:29:23;6.25;53.70
75466;HTU21D;64049;46.290;44.240;2023-04-06T00:31:58;6.29;53.64
75466;HTU21D;64049;46.290;44.240;2023-04-06T00:34:24;6.37;53.51
75466;HTU21D;64049;46.290;44.240;2023-04-06T00:36:50;6.38;53.31
75466;HTU21D;64049;46.290;44.240;2023-04-06T00:39:16;6.34;53.27
75466;HTU21D;64049;46.290;44.240;2023-04-06T00:45:29;6.16;53.21
75466;HTU21D;64049;46.290;44.240;2023-04-06T00:47:56;6.10;53.30
75466;HTU21D;64049;46.290;44.240;2023-04-06T00:50:47;6.02;53.48
75466;HTU21D;64049;46.290;44.240;2023-04-06T00:53:13;5.97;53.34
75466;HTU21D;64049;46.290;44.240;2023-04-06T00:55:39;5.91;53.40
75466;HTU21D;64049;46.290;44.240;2023-04-06T00:58:06;5.89;53.41
75466;HTU21D;64049;46.290;44.240;2023-04-06T01:01:00;5.82;53.58
75466;HTU21D;64049;46.290;44.240;2023-04-06T01:03:26;5.79;53.47
75466;HTU21D;64049;46.290;44.240;2023-04-06T01:05:52;5.70;53.62
75466;HTU21D;64049;46.290;44.240;2023-04-06T01:08:27;5.62;53.75
75466;HTU21D;64049;46.290;44.240;2023-04-06T01:11:16;5.49;54.02
75466;HTU21D;64049;46.290;44.240;2023-04-06T01:13:43;5.40;54.00
75466;HTU21D;64049;46.290;44.240;2023-04-06T01:16:17;5.34;54.01
75466;HTU21D;64049;46.290;44.240;2023-04-06T01:18:53;5.24;54.13
75466;HTU21D;64049;46.290;44.240;2023-04-06T01:21:23;5.16;54.30
75466;HTU21D;64049;46.290;44.240;2023-04-06T01:24:10;5.07;54.38
75466;HTU21D;64049;46.290;44.240;2023-04-06T01:26:54;4.97;54.48
75466;HTU21D;64049;46.290;44.240;2023-04-06T01:29:20;4.96;54.55
75466;HTU21D;64049;46.290;44.240;2023-04-06T01:31:46;4.93;54.58
75466;HTU21D;64049;46.290;44.240;2023-04-06T01:34:12;4.90;54.63
75466;HTU21D;64049;46.290;44.240;2023-04-06T01:36:38;4.84;54.68
75466;HTU21D;64049;46.290;44.240;2023-04-06T01:39:21;4.83;54.67
75466;HTU21D;64049;46.290;44.240;2023-04-06T01:42:11;4.80;54.88
75466;HTU21D;64049;46.290;44.240;2023-04-06T01:44:39;4.77;54.68
75466;HTU21D;64049;46.290;44.240;2023-04-06T01:47:12;4.86;54.79
75466;HTU21D;64049;46.290;44.240;2023-04-06T01:49:39;4.89;54.59
75466;HTU21D;64049;46.290;44.240;2023-04-06T01:55:58;4.87;54.38
75466;HTU21D;64049;46.290;44.240;2023-04-06T01:58:37;4.83;54.52
75466;HTU21D;64049;46.290;44.240;2023-04-06T02:04:20;4.76;54.57
75466;HTU21D;64049;46.290;44.240;2023-04-06T02:06:51;4.76;54.78
75466;HTU21D;64049;46.290;44.240;2023-04-06T02:09:21;4.73;54.81
75466;HTU21D;64049;46.290;44.240;2023-04-06T02:11:51;4.73;54.91
75466;HTU21D;64049;46.290;44.240;2023-04-06T02:14:17;4.71;54.90
75466;HTU21D;64049;46.290;44.240;2023-04-06T02:16:50;4.66;54.97
75466;HTU21D;64049;46.290;44.240;2023-04-06T02:19:16;4.64;55.07
75466;HTU21D;64049;46.290;44.240;2023-04-06T02:21:48;4.63;55.24
75466;HTU21D;64049;46.290;44.240;2023-04-06T02:24:14;4.66;55.07
75466;HTU21D;64049;46.290;44.240;2023-04-06T02:26:40;4.67;55.07
75466;HTU21D;64049;46.290;44.240;2023-04-06T02:29:06;4.68;55.13
75466;HTU21D;64049;46.290;44.240;2023-04-06T02:31:33;4.69;55.15
75466;HTU21D;64049;46.290;44.240;2023-04-06T02:34:01;4.73;54.97
75466;HTU21D;64049;46.290;44.240;2023-04-06T02:36:28;4.71;54.74
75466;HTU21D;64049;46.290;44.240;2023-04-06T02:38:55;4.64;54.75
75466;HTU21D;64049;46.290;44.240;2023-04-06T02:41:22;4.61;54.97
75466;HTU21D;64049;46.290;44.240;2023-04-06T02:43:49;4.62;55.02
75466;HTU21D;64049;46.290;44.240;2023-04-06T02:46:24;4.63;55.12
75466;HTU21D;64049;46.290;44.240;2023-04-06T02:48:50;4.65;55.11
75466;HTU21D;64049;46.290;44.240;2023-04-06T02:54:39;4.67;55.02
75466;HTU21D;64049;46.290;44.240;2023-04-06T02:57:05;4.66;55.12
75466;HTU21D;64049;46.290;44.240;2023-04-06T02:59:39;4.75;55.10
75466;HTU21D;64049;46.290;44.240;2023-04-06T03:02:12;4.80;54.99
75466;HTU21D;64049;46.290;44.240;2023-04-06T03:04:39;4.87;54.99
75466;HTU21D;64049;46.290;44.240;2023-04-06T03:07:13;4.96;54.92
75466;HTU21D;64049;46.290;44.240;2023-04-06T03:09:39;5.09;54.85
75466;HTU21D;64049;46.290;44.240;2023-04-06T03:12:12;5.19;54.84
75466;HTU21D;64049;46.290;44.240;2023-04-06T03:14:59;5.32;54.51
75466;HTU21D;64049;46.290;44.240;2023-04-06T03:17:25;5.48;54.48
75466;HTU21D;64049;46.290;44.240;2023-04-06T03:19:53;5.65;54.28
75466;HTU21D;64049;46.290;44.240;2023-04-06T03:22:20;5.83;54.12
75466;HTU21D;64049;46.290;44.240;2023-04-06T03:24:47;5.98;54.01
75466;HTU21D;64049;46.290;44.240;2023-04-06T03:27:13;6.13;53.87
75466;HTU21D;64049;46.290;44.240;2023-04-06T03:29:40;6.36;53.74
75466;HTU21D;64049;46.290;44.240;2023-04-06T03:32:09;6.54;53.55
75466;HTU21D;64049;46.290;44.240;2023-04-06T03:34:39;6.75;53.36
75466;HTU21D;64049;46.290;44.240;2023-04-06T03:37:06;6.91;53.29
75466;HTU21D;64049;46.290;44.240;2023-04-06T03:39:33;7.05;53.20
75466;HTU21D;64049;46.290;44.240;2023-04-06T03:42:11;7.22;53.39
75466;HTU21D;64049;46.290;44.240;2023-04-06T03:44:43;7.40;53.23
75466;HTU21D;64049;46.290;44.240;2023-04-06T03:47:09;7.57;53.20
75466;HTU21D;64049;46.290;44.240;2023-04-06T03:49:35;7.70;53.16
75466;HTU21D;64049;46.290;44.240;2023-04-06T03:52:04;7.82;53.17
75466;HTU21D;64049;46.290;44.240;2023-04-06T03:54:30;7.91;53.19
75466;HTU21D;64049;46.290;44.240;2023-04-06T03:56:56;8.03;53.20
75466;HTU21D;64049;46.290;44.240;2023-04-06T03:59:25;8.16;53.16
75466;HTU21D;64049;46.290;44.240;2023-04-06T04:04:50;8.45;52.98
75466;HTU21D;64049;46.290;44.240;2023-04-06T04:07:53;8.59;53.00
75466;HTU21D;64049;46.290;44.240;2023-04-06T04:13:29;8.88;52.50
75466;HTU21D;64049;46.290;44.240;2023-04-06T04:15:55;9.00;52.53
75466;HTU21D;64049;46.290;44.240;2023-04-06T04:18:21;9.14;52.56
75466;HTU21D;64049;46.290;44.240;2023-04-06T04:20:47;9.25;52.77
75466;HTU21D;64049;46.290;44.240;2023-04-06T04:23:13;9.36;52.95
75466;HTU21D;64049;46.290;44.240;2023-04-06T04:25:40;9.46;52.91
75466;HTU21D;64049;46.290;44.240;2023-04-06T04:28:06;9.59;52.78
75466;HTU21D;64049;46.290;44.240;2023-04-06T04:30:33;9.75;52.61
75466;HTU21D;64049;46.290;44.240;2023-04-06T04:32:59;9.93;52.37
75466;HTU21D;64049;46.290;44.240;2023-04-06T04:35:27;10.11;52.15
75466;HTU21D;64049;46.290;44.240;2023-04-06T04:37:53;10.28;51.88
75466;HTU21D;64049;46.290;44.240;2023-04-06T04:40:20;10.45;51.66
75466;HTU21D;64049;46.290;44.240;2023-04-06T04:42:57;10.63;51.44
75466;HTU21D;64049;46.290;44.240;2023-04-06T04:45:32;10.80;51.25
75466;HTU21D;64049;46.290;44.240;2023-04-06T04:48:04;10.96;51.03
75466;HTU21D;64049;46.290;44.240;2023-04-06T04:50:44;11.16;50.72
75466;HTU21D;64049;46.290;44.240;2023-04-06T04:53:10;11.34;50.47
75466;HTU21D;64049;46.290;44.240;2023-04-06T04:55:36;11.56;50.18
75466;HTU21D;64049;46.290;44.240;2023-04-06T04:58:03;11.75;49.88
75466;HTU21D;64049;46.290;44.240;2023-04-06T05:00:48;11.97;49.62
75466;HTU21D;64049;46.290;44.240;2023-04-06T05:03:26;12.17;49.27
75466;HTU21D;64049;46.290;44.240;2023-04-06T05:06:02;12.30;49.08
75466;HTU21D;64049;46.290;44.240;2023-04-06T05:08:32;12.37;48.86
75466;HTU21D;64049;46.290;44.240;2023-04-06T05:10:59;12.50;48.62
75466;HTU21D;64049;46.290;44.240;2023-04-06T05:13:27;12.63;48.18
75466;HTU21D;64049;46.290;44.240;2023-04-06T05:15:54;12.77;47.89
75466;HTU21D;64049;46.290;44.240;2023-04-06T05:18:25;12.94;47.47
75466;HTU21D;64049;46.290;44.240;2023-04-06T05:20:52;13.17;47.05
75466;HTU21D;64049;46.290;44.240;2023-04-06T05:23:23;13.44;46.35
75466;HTU21D;64049;46.290;44.240;2023-04-06T05:25:50;13.54;46.02
75466;HTU21D;64049;46.290;44.240;2023-04-06T05:28:20;13.75;45.73
75466;HTU21D;64049;46.290;44.240;2023-04-06T05:30:46;14.04;45.28
75466;HTU21D;64049;46.290;44.240;2023-04-06T05:33:14;14.26;44.85
75466;HTU21D;64049;46.290;44.240;2023-04-06T05:36:00;14.54;44.25
75466;HTU21D;64049;46.290;44.240;2023-04-06T05:38:27;14.80;43.58
75466;HTU21D;64049;46.290;44.240;2023-04-06T05:40:57;14.97;42.99
75466;HTU21D;64049;46.290;44.240;2023-04-06T05:43:26;15.19;42.42
75466;HTU21D;64049;46.290;44.240;2023-04-06T05:45:54;15.48;41.65
75466;HTU21D;64049;46.290;44.240;2023-04-06T05:48:20;15.77;40.92
75466;HTU21D;64049;46.290;44.240;2023-04-06T05:50:50;16.07;39.95
75466;HTU21D;64049;46.290;44.240;2023-04-06T05:53:19;16.34;39.46
75466;HTU21D;64049;46.290;44.240;2023-04-06T05:55:52;16.61;38.88
75466;HTU21D;64049;46.290;44.240;2023-04-06T05:58:20;16.73;37.94
75466;HTU21D;64049;46.290;44.240;2023-04-06T06:00:47;16.91;37.56
75466;HTU21D;64049;46.290;44.240;2023-04-06T06:03:17;17.14;37.07
75466;HTU21D;64049;46.290;44.240;2023-04-06T06:05:49;17.31;36.40
75466;HTU21D;64049;46.290;44.240;2023-04-06T06:08:22;17.52;35.51
75466;HTU21D;64049;46.290;44.240;2023-04-06T06:10:50;17.61;34.83
75466;HTU21D;64049;46.290;44.240;2023-04-06T06:13:20;17.67;34.41
75466;HTU21D;64049;46.290;44.240;2023-04-06T06:15:49;17.72;33.77
75466;HTU21D;64049;46.290;44.240;2023-04-06T06:18:17;17.89;33.50
75466;HTU21D;64049;46.290;44.240;2023-04-06T06:20:43;18.10;32.81
75466;HTU21D;64049;46.290;44.240;2023-04-06T06:23:09;18.29;32.01
75466;HTU21D;64049;46.290;44.240;2023-04-06T06:25:36;18.47;31.73
75466;HTU21D;64049;46.290;44.240;2023-04-06T06:28:03;18.68;31.25
75466;HTU21D;64049;46.290;44.240;2023-04-06T06:30:32;18.92;30.47
75466;HTU21D;64049;46.290;44.240;2023-04-06T06:32:59;19.12;29.26
75466;HTU21D;64049;46.290;44.240;2023-04-06T06:35:27;19.16;28.58
75466;HTU21D;64049;46.290;44.240;2023-04-06T06:37:53;19.16;27.07
75466;HTU21D;64049;46.290;44.240;2023-04-06T06:40:22;19.15;27.48
75466;HTU21D;64049;46.290;44.240;2023-04-06T06:42:50;19.23;28.38
75466;HTU21D;64049;46.290;44.240;2023-04-06T06:45:43;19.27;28.03
75466;HTU21D;64049;46.290;44.240;2023-04-06T06:48:12;19.31;27.65
75466;HTU21D;64049;46.290;44.240;2023-04-06T06:50:39;19.36;27.13
75466;HTU21D;64049;46.290;44.240;2023-04-06T06:53:05;19.38;26.46
75466;HTU21D;64049;46.290;44.240;2023-04-06T06:55:31;19.61;26.04
75466;HTU21D;64049;46.290;44.240;2023-04-06T06:57:57;19.77;25.57
75466;HTU21D;64049;46.290;44.240;2023-04-06T07:00:23;19.65;25.91
75466;HTU21D;64049;46.290;44.240;2023-04-06T07:02:51;19.74;25.68
75466;HTU21D;64049;46.290;44.240;2023-04-06T07:05:17;19.69;25.86
75466;HTU21D;64049;46.290;44.240;2023-04-06T07:07:42;19.66;25.73
75466;HTU21D;64049;46.290;44.240;2023-04-06T07:10:10;19.58;25.36
75466;HTU21D;64049;46.290;44.240;2023-04-06T07:12:37;19.65;25.44
75466;HTU21D;64049;46.290;44.240;2023-04-06T07:15:04;19.81;24.75
75466;HTU21D;64049;46.290;44.240;2023-04-06T07:17:30;19.90;24.30
75466;HTU21D;64049;46.290;44.240;2023-04-06T07:19:56;20.12;24.52
75466;HTU21D;64049;46.290;44.240;2023-04-06T07:22:22;20.37;24.00
75466;HTU21D;64049;46.290;44.240;2023-04-06T07:24:48;20.51;23.49
75466;HTU21D;64049;46.290;44.240;2023-04-06T07:27:14;20.57;23.52
75466;HTU21D;64049;46.290;44.240;2023-04-06T07:29:43;20.63;23.10
75466;HTU21D;64049;46.290;44.240;2023-04-06T07:32:09;20.61;22.63
75466;HTU21D;64049;46.290;44.240;2023-04-06T07:34:35;20.65;22.28
75466;HTU21D;64049;46.290;44.240;2023-04-06T07:37:01;20.84;22.34
75466;HTU21D;64049;46.290;44.240;2023-04-06T07:39:28;21.08;23.19
75466;HTU21D;64049;46.290;44.240;2023-04-06T07:41:56;21.30;22.50
75466;HTU21D;64049;46.290;44.240;2023-04-06T07:44:22;21.57;21.62
75466;HTU21D;64049;46.290;44.240;2023-04-06T07:46:48;21.69;21.53
75466;HTU21D;64049;46.290;44.240;2023-04-06T07:49:15;21.62;21.39
75466;HTU21D;64049;46.290;44.240;2023-04-06T07:51:41;21.31;21.83
75466;HTU21D;64049;46.290;44.240;2023-04-06T07:54:07;21.18;22.20
75466;HTU21D;64049;46.290;44.240;2023-04-06T07:56:33;21.14;22.56
75466;HTU21D;64049;46.290;44.240;2023-04-06T07:58:59;21.44;22.84
75466;HTU21D;64049;46.290;44.240;2023-04-06T08:01:27;21.89;22.75
75466;HTU21D;64049;46.290;44.240;2023-04-06T08:03:55;21.98;21.87
75466;HTU21D;64049;46.290;44.240;2023-04-06T08:06:21;21.63;22.06
75466;HTU21D;64049;46.290;44.240;2023-04-06T08:08:47;21.79;22.34
75466;HTU21D;64049;46.290;44.240;2023-04-06T08:11:21;21.74;21.72
75466;HTU21D;64049;46.290;44.240;2023-04-06T08:13:47;21.65;21.92
75466;HTU21D;64049;46.290;44.240;2023-04-06T08:16:13;21.98;22.18
75466;HTU21D;64049;46.290;44.240;2023-04-06T08:18:40;22.38;21.86
75466;HTU21D;64049;46.290;44.240;2023-04-06T08:21:06;22.47;21.81
75466;HTU21D;64049;46.290;44.240;2023-04-06T08:23:32;22.63;21.89
75466;HTU21D;64049;46.290;44.240;2023-04-06T08:26:01;22.91;21.86
75466;HTU21D;64049;46.290;44.240;2023-04-06T08:28:27;23.16;21.56
75466;HTU21D;64049;46.290;44.240;2023-04-06T08:30:53;23.32;21.37
75466;HTU21D;64049;46.290;44.240;2023-04-06T08:33:25;23.51;20.89
75466;HTU21D;64049;46.290;44.240;2023-04-06T08:35:51;23.32;20.71
75466;HTU21D;64049;46.290;44.240;2023-04-06T08:38:22;23.40;20.66
75466;HTU21D;64049;46.290;44.240;2023-04-06T08:44:16;23.90;20.40
75466;HTU21D;64049;46.290;44.240;2023-04-06T08:46:42;23.84;19.93
75466;HTU21D;64049;46.290;44.240;2023-04-06T08:49:08;23.80;19.50
75466;HTU21D;64049;46.290;44.240;2023-04-06T08:51:58;23.73;19.47
75466;HTU21D;64049;46.290;44.240;2023-04-06T08:54:42;23.77;19.13
75466;HTU21D;64049;46.290;44.240;2023-04-06T08:57:08;24.00;19.31
75466;HTU21D;64049;46.290;44.240;2023-04-06T08:59:35;24.29;19.02
75466;HTU21D;64049;46.290;44.240;2023-04-06T09:02:04;24.47;19.20
75466;HTU21D;64049;46.290;44.240;2023-04-06T09:04:56;24.50;19.20
75466;HTU21D;64049;46.290;44.240;2023-04-06T09:07:23;24.45;19.33
75466;HTU21D;64049;46.290;44.240;2023-04-06T09:09:57;24.56;19.27
75466;HTU21D;64049;46.290;44.240;2023-04-06T09:12:27;24.59;19.47
75466;HTU21D;64049;46.290;44.240;2023-04-06T09:15:18;24.58;19.71
75466;HTU21D;64049;46.290;44.240;2023-04-06T09:17:45;24.38;20.15
75466;HTU21D;64049;46.290;44.240;2023-04-06T09:20:12;23.99;20.47
75466;HTU21D;64049;46.290;44.240;2023-04-06T09:22:39;23.67;20.41
75466;HTU21D;64049;46.290;44.240;2023-04-06T09:25:05;23.34;20.95
75466;HTU21D;64049;46.290;44.240;2023-04-06T09:27:37;23.01;21.85
75466;HTU21D;64049;46.290;44.240;2023-04-06T09:30:08;23.24;21.56
75466;HTU21D;64049;46.290;44.240;2023-04-06T09:32:55;23.54;21.51
75466;HTU21D;64049;46.290;44.240;2023-04-06T09:35:22;23.81;21.57
75466;HTU21D;64049;46.290;44.240;2023-04-06T09:37:52;24.00;20.85
75466;HTU21D;64049;46.290;44.240;2023-04-06T09:40:19;23.69;21.55
75466;HTU21D;64049;46.290;44.240;2023-04-06T09:42:46;23.45;22.05
75466;HTU21D;64049;46.290;44.240;2023-04-06T09:45:12;23.43;22.30
75466;HTU21D;64049;46.290;44.240;2023-04-06T09:47:42;23.61;22.43
75466;HTU21D;64049;46.290;44.240;2023-04-06T09:50:10;23.82;22.44
75466;HTU21D;64049;46.290;44.240;2023-04-06T09:52:54;23.85;22.32
75466;HTU21D;64049;46.290;44.240;2023-04-06T10:00:51;24.08;22.16
75466;HTU21D;64049;46.290;44.240;2023-04-06T10:06:14;24.02;22.50
75466;HTU21D;64049;46.290;44.240;2023-04-06T10:08:42;24.03;22.23
75466;HTU21D;64049;46.290;44.240;2023-04-06T10:11:11;24.04;22.50
75466;HTU21D;64049;46.290;44.240;2023-04-06T10:13:37;24.27;22.43
75466;HTU21D;64049;46.290;44.240;2023-04-06T10:16:03;24.50;22.08
75466;HTU21D;64049;46.290;44.240;2023-04-06T10:18:30;24.75;21.50
75466;HTU21D;64049;46.290;44.240;2023-04-06T10:21:07;24.70;21.63
75466;HTU21D;64049;46.290;44.240;2023-04-06T10:23:47;24.72;21.31
75466;HTU21D;64049;46.290;44.240;2023-04-06T10:26:14;24.63;21.44
75466;HTU21D;64049;46.290;44.240;2023-04-06T10:28:43;24.72;21.66
75466;HTU21D;64049;46.290;44.240;2023-04-06T10:31:11;24.87;21.46
75466;HTU21D;64049;46.290;44.240;2023-04-06T10:33:37;24.89;21.34
75466;HTU21D;64049;46.290;44.240;2023-04-06T10:36:13;24.84;21.32
75466;HTU21D;64049;46.290;44.240;2023-04-06T10:38:41;24.83;21.31
75466;HTU21D;64049;46.290;44.240;2023-04-06T10:41:09;24.58;21.55
75466;HTU21D;64049;46.290;44.240;2023-04-06T10:43:37;24.58;21.86
75466;HTU21D;64049;46.290;44.240;2023-04-06T10:46:05;24.44;21.73
75466;HTU21D;64049;46.290;44.240;2023-04-06T10:48:42;24.24;22.04
75466;HTU21D;64049;46.290;44.240;2023-04-06T10:51:11;24.23;22.39
75466;HTU21D;64049;46.290;44.240;2023-04-06T10:53:37;24.41;21.97
75466;HTU21D;64049;46.290;44.240;2023-04-06T10:56:09;24.29;22.25
75466;HTU21D;64049;46.290;44.240;2023-04-06T10:58:36;24.24;22.21
75466;HTU21D;64049;46.290;44.240;2023-04-06T11:01:03;24.11;22.24
75466;HTU21D;64049;46.290;44.240;2023-04-06T11:03:30;24.10;22.72
75466;HTU21D;64049;46.290;44.240;2023-04-06T11:05:57;24.36;22.56
75466;HTU21D;64049;46.290;44.240;2023-04-06T11:08:31;24.56;22.82
75466;HTU21D;64049;46.290;44.240;2023-04-06T11:11:05;24.60;22.43
75466;HTU21D;64049;46.290;44.240;2023-04-06T11:13:58;24.53;22.59
75466;HTU21D;64049;46.290;44.240;2023-04-06T11:16:27;24.31;22.81
75466;HTU21D;64049;46.290;44.240;2023-04-06T11:18:55;24.34;22.90
75466;HTU21D;64049;46.290;44.240;2023-04-06T11:24:18;24.54;22.71
75466;HTU21D;64049;46.290;44.240;2023-04-06T11:26:55;24.74;22.56
75466;HTU21D;64049;46.290;44.240;2023-04-06T11:29:26;25.16;22.17
75466;HTU21D;64049;46.290;44.240;2023-04-06T11:34:25;25.80;21.63
75466;HTU21D;64049;46.290;44.240;2023-04-06T11:36:57;26.10;20.72
75466;HTU21D;64049;46.290;44.240;2023-04-06T11:39:24;26.02;21.05
75466;HTU21D;64049;46.290;44.240;2023-04-06T11:41:56;26.38;20.86
75466;HTU21D;64049;46.290;44.240;2023-04-06T11:44:39;26.87;20.39
75466;HTU21D;64049;46.290;44.240;2023-04-06T11:47:10;27.07;20.12
75466;HTU21D;64049;46.290;44.240;2023-04-06T11:49:38;27.37;19.92
75466;HTU21D;64049;46.290;44.240;2023-04-06T11:54:43;27.75;19.20
75466;HTU21D;64049;46.290;44.240;2023-04-06T11:57:09;27.83;19.23
75466;HTU21D;64049;46.290;44.240;2023-04-06T11:59:35;27.91;18.94
75466;HTU21D;64049;46.290;44.240;2023-04-06T12:02:02;27.98;18.45
75466;HTU21D;64049;46.290;44.240;2023-04-06T12:04:28;27.76;18.85
75466;HTU21D;64049;46.290;44.240;2023-04-06T12:06:55;27.90;18.58
75466;HTU21D;64049;46.290;44.240;2023-04-06T12:09:20;28.05;18.40
75466;HTU21D;64049;46.290;44.240;2023-04-06T12:11:47;28.42;17.96
75466;HTU21D;64049;46.290;44.240;2023-04-06T12:14:14;28.27;17.52
75466;HTU21D;64049;46.290;44.240;2023-04-06T12:16:40;28.10;17.83
75466;HTU21D;64049;46.290;44.240;2023-04-06T12:19:06;27.93;17.91
75466;HTU21D;64049;46.290;44.240;2023-04-06T12:21:33;27.64;17.87
75466;HTU21D;64049;46.290;44.240;2023-04-06T12:24:00;27.16;17.94
75466;HTU21D;64049;46.290;44.240;2023-04-06T12:26:27;26.81;18.43
75466;HTU21D;64049;46.290;44.240;2023-04-06T12:28:53;26.65;18.41
75466;HTU21D;64049;46.290;44.240;2023-04-06T12:31:21;27.15;18.15
75466;HTU21D;64049;46.290;44.240;2023-04-06T12:33:50;27.26;17.96
75466;HTU21D;64049;46.290;44.240;2023-04-06T12:36:19;26.71;19.07
75466;HTU21D;64049;46.290;44.240;2023-04-06T12:38:55;26.46;19.42
75466;HTU21D;64049;46.290;44.240;2023-04-06T12:41:21;26.76;19.18
75466;HTU21D;64049;46.290;44.240;2023-04-06T12:43:48;27.26;18.83
75466;HTU21D;64049;46.290;44.240;2023-04-06T12:46:15;28.05;18.04
75466;HTU21D;64049;46.290;44.240;2023-04-06T12:48:41;29.17;16.50
75466;HTU21D;64049;46.290;44.240;2023-04-06T12:51:07;29.09;16.29
75466;HTU21D;64049;46.290;44.240;2023-04-06T12:53:34;28.02;17.17
75466;HTU21D;64049;46.290;44.240;2023-04-06T12:56:00;27.36;18.59
75466;HTU21D;64049;46.290;44.240;2023-04-06T12:58:26;26.87;19.52
75466;HTU21D;64049;46.290;44.240;2023-04-06T13:00:52;26.27;19.63
75466;HTU21D;64049;46.290;44.240;2023-04-06T13:03:19;25.97;19.82
75466;HTU21D;64049;46.290;44.240;2023-04-06T13:05:46;25.68;20.47
75466;HTU21D;64049;46.290;44.240;2023-04-06T13:08:13;25.22;20.98
75466;HTU21D;64049;46.290;44.240;2023-04-06T13:10:44;24.91;21.17
75466;HTU21D;64049;46.290;44.240;2023-04-06T13:13:14;24.66;21.67
75466;HTU21D;64049;46.290;44.240;2023-04-06T13:15:40;24.42;21.95
75466;HTU21D;64049;46.290;44.240;2023-04-06T13:18:07;24.16;21.88
75466;HTU21D;64049;46.290;44.240;2023-04-06T13:20:33;23.94;22.47
75466;HTU21D;64049;46.290;44.240;2023-04-06T13:22:59;23.70;22.66
75466;HTU21D;64049;46.290;44.240;2023-04-06T13:25:25;23.42;23.03
75466;HTU21D;64049;46.290;44.240;2023-04-06T13:27:51;23.18;23.27
75466;HTU21D;64049;46.290;44.240;2023-04-06T13:30:18;23.02;23.66
75466;HTU21D;64049;46.290;44.240;2023-04-06T13:32:44;22.83;23.82
75466;HTU21D;64049;46.290;44.240;2023-04-06T13:35:10;22.58;24.29
75466;HTU21D;64049;46.290;44.240;2023-04-06T13:37:37;22.43;24.65
75466;HTU21D;64049;46.290;44.240;2023-04-06T13:40:03;22.31;24.78
75466;HTU21D;64049;46.290;44.240;2023-04-06T13:42:30;22.13;24.80
75466;HTU21D;64049;46.290;44.240;2023-04-06T13:44:57;22.02;25.11
75466;HTU21D;64049;46.290;44.240;2023-04-06T13:47:23;21.89;25.20
75466;HTU21D;64049;46.290;44.240;2023-04-06T13:49:52;21.76;25.59
75466;HTU21D;64049;46.290;44.240;2023-04-06T13:52:18;21.66;25.51
75466;HTU21D;64049;46.290;44.240;2023-04-06T13:54:45;21.51;25.85
75466;HTU21D;64049;46.290;44.240;2023-04-06T13:57:11;21.40;26.23
75466;HTU21D;64049;46.290;44.240;2023-04-06T13:59:38;21.38;26.36
75466;HTU21D;64049;46.290;44.240;2023-04-06T14:02:06;21.35;26.31
75466;HTU21D;64049;46.290;44.240;2023-04-06T14:04:32;21.31;26.26
75466;HTU21D;64049;46.290;44.240;2023-04-06T14:07:00;21.23;26.33
75466;HTU21D;64049;46.290;44.240;2023-04-06T14:09:26;21.14;26.57
75466;HTU21D;64049;46.290;44.240;2023-04-06T14:11:53;21.02;26.58
75466;HTU21D;64049;46.290;44.240;2023-04-06T14:14:19;20.92;26.98
75466;HTU21D;64049;46.290;44.240;2023-04-06T14:16:45;20.76;27.11
75466;HTU21D;64049;46.290;44.240;2023-04-06T14:19:12;20.60;28.03
75466;HTU21D;64049;46.290;44.240;2023-04-06T14:21:39;20.43;28.84
75466;HTU21D;64049;46.290;44.240;2023-04-06T14:24:07;20.10;30.17
75466;HTU21D;64049;46.290;44.240;2023-04-06T14:26:34;19.72;31.31
75466;HTU21D;64049;46.290;44.240;2023-04-06T14:29:01;19.32;31.16
75466;HTU21D;64049;46.290;44.240;2023-04-06T14:31:28;18.86;32.74
75466;HTU21D;64049;46.290;44.240;2023-04-06T14:33:54;18.58;33.22
75466;HTU21D;64049;46.290;44.240;2023-04-06T14:36:20;18.39;33.25
75466;HTU21D;64049;46.290;44.240;2023-04-06T14:38:46;18.20;33.56
75466;HTU21D;64049;46.290;44.240;2023-04-06T14:41:19;17.97;34.62
75466;HTU21D;64049;46.290;44.240;2023-04-06T14:43:46;17.80;35.09
75466;HTU21D;64049;46.290;44.240;2023-04-06T14:46:13;17.60;35.72
75466;HTU21D;64049;46.290;44.240;2023-04-06T14:48:39;17.38;36.21
75466;HTU21D;64049;46.290;44.240;2023-04-06T14:51:07;17.17;37.52
75466;HTU21D;64049;46.290;44.240;2023-04-06T14:53:33;16.99;37.98
75466;HTU21D;64049;46.290;44.240;2023-04-06T14:55:59;16.79;38.72
75466;HTU21D;64049;46.290;44.240;2023-04-06T14:58:25;16.62;39.09
75466;HTU21D;64049;46.290;44.240;2023-04-06T15:00:59;16.45;39.93
75466;HTU21D;64049;46.290;44.240;2023-04-06T15:03:26;16.31;40.30
75466;HTU21D;64049;46.290;44.240;2023-04-06T15:05:53;16.16;40.85
75466;HTU21D;64049;46.290;44.240;2023-04-06T15:08:19;16.00;41.12
75466;HTU21D;64049;46.290;44.240;2023-04-06T15:10:49;15.85;41.42
75466;HTU21D;64049;46.290;44.240;2023-04-06T15:13:15;15.72;42.01
75466;HTU21D;64049;46.290;44.240;2023-04-06T15:15:41;15.59;42.85
75466;HTU21D;64049;46.290;44.240;2023-04-06T15:18:09;15.45;43.63
75466;HTU21D;64049;46.290;44.240;2023-04-06T15:20:35;15.29;44.48
75466;HTU21D;64049;46.290;44.240;2023-04-06T15:23:04;15.13;45.17
75466;HTU21D;64049;46.290;44.240;2023-04-06T15:25:30;14.98;45.32
75466;HTU21D;64049;46.290;44.240;2023-04-06T15:27:57;14.84;45.86
75466;HTU21D;64049;46.290;44.240;2023-04-06T15:30:23;14.71;46.10
75466;HTU21D;64049;46.290;44.240;2023-04-06T15:32:59;14.59;46.18
75466;HTU21D;64049;46.290;44.240;2023-04-06T15:35:29;14.53;46.25
75466;HTU21D;64049;46.290;44.240;2023-04-06T15:37:56;14.45;46.58
75466;HTU21D;64049;46.290;44.240;2023-04-06T15:40:25;14.41;46.67
75466;HTU21D;64049;46.290;44.240;2023-04-06T15:42:51;14.39;46.73
75466;HTU21D;64049;46.290;44.240;2023-04-06T15:45:17;14.36;47.12
75466;HTU21D;64049;46.290;44.240;2023-04-06T15:47:44;14.32;47.21
75466;HTU21D;64049;46.290;44.240;2023-04-06T15:50:14;14.26;47.40
75466;HTU21D;64049;46.290;44.240;2023-04-06T15:52:40;14.23;47.36
75466;HTU21D;64049;46.290;44.240;2023-04-06T15:55:07;14.17;47.43
75466;HTU21D;64049;46.290;44.240;2023-04-06T15:57:34;14.10;47.58
75466;HTU21D;64049;46.290;44.240;2023-04-06T16:00:00;14.06;47.65